createdAt,value
2017-07-16T00:00:32.581Z,100991
2017-07-16T00:01:32.628Z,100999
2017-07-16T00:02:33.900Z,100998
2017-07-16T00:03:32.600Z,100999
2017-07-16T00:04:32.736Z,101000
2017-07-16T00:05:33.719Z,101003
2017-07-16T00:06:32.823Z,100991
2017-07-16T00:07:32.866Z,100998
2017-07-16T00:08:33.219Z,100996
2017-07-16T00:09:33.915Z,100998
2017-07-16T00:10:33.002Z,100997
2017-07-16T00:11:33.119Z,100994
2017-07-16T00:12:34.155Z,100991
2017-07-16T00:13:33.138Z,100995
2017-07-16T00:14:35.214Z,101000
2017-07-16T00:15:34.290Z,100991
2017-07-16T00:16:34.982Z,101000
2017-07-16T00:17:35.029Z,101002
2017-07-16T00:18:35.082Z,101008
2017-07-16T00:19:33.455Z,100997
2017-07-16T00:20:34.766Z,101006
2017-07-16T00:21:33.565Z,101003
2017-07-16T00:22:33.654Z,101002
2017-07-16T00:23:33.719Z,101003
2017-07-16T00:24:33.749Z,101000
2017-07-16T00:25:34.779Z,101002
2017-07-16T00:26:35.144Z,101001
2017-07-16T00:27:34.931Z,100999
2017-07-16T00:28:35.738Z,101002
2017-07-16T00:29:34.128Z,101001
2017-07-16T00:30:35.881Z,100999
2017-07-16T00:31:35.210Z,101005
2017-07-16T00:32:36.174Z,100992
2017-07-16T00:33:34.245Z,101004
2017-07-16T00:34:35.206Z,100999
2017-07-16T00:35:36.037Z,101001
2017-07-16T00:36:36.009Z,101006
2017-07-16T00:37:34.388Z,101008
2017-07-16T00:38:36.475Z,101007
2017-07-16T00:39:34.576Z,101006
2017-07-16T00:40:35.609Z,101007
2017-07-16T00:41:36.370Z,101004
2017-07-16T00:42:35.725Z,101004
2017-07-16T00:43:35.779Z,101003
2017-07-16T00:44:34.881Z,101002
2017-07-16T00:45:34.913Z,101003
2017-07-16T00:46:34.968Z,101004
2017-07-16T00:47:35.991Z,101006
2017-07-16T00:48:34.981Z,101005
2017-07-16T00:49:36.061Z,101001
2017-07-16T00:50:36.757Z,100996
2017-07-16T00:51:36.069Z,100992
2017-07-16T00:52:35.095Z,101000
2017-07-16T00:53:36.159Z,100999
2017-07-16T00:54:36.305Z,100997
2017-07-16T00:55:36.292Z,100993
2017-07-16T00:56:36.964Z,100994
2017-07-16T00:57:35.322Z,100998
2017-07-16T00:58:36.344Z,100986
2017-07-16T00:59:36.387Z,100993
2017-07-16T01:00:36.466Z,100992
2017-07-16T01:01:35.576Z,100991
2017-07-16T01:02:35.609Z,100994
2017-07-16T01:03:35.683Z,100987
2017-07-16T01:04:35.805Z,100996
2017-07-16T01:05:37.477Z,100996
2017-07-16T01:06:35.848Z,100997
2017-07-16T01:07:36.898Z,100999
2017-07-16T01:08:36.904Z,101003
2017-07-16T01:09:36.973Z,101001
2017-07-16T01:10:36.961Z,100992
2017-07-16T01:11:37.742Z,100997
2017-07-16T01:12:36.040Z,100997
2017-07-16T01:13:37.755Z,100994
2017-07-16T01:14:36.124Z,100992
2017-07-16T01:15:36.122Z,100986
2017-07-16T01:16:36.154Z,100981
2017-07-16T01:17:36.232Z,100988
2017-07-16T01:18:37.903Z,100985
2017-07-16T01:19:37.973Z,100984
2017-07-16T01:20:38.057Z,100981
2017-07-16T01:21:38.112Z,100982
2017-07-16T01:22:36.489Z,100981
2017-07-16T01:23:38.207Z,100982
2017-07-16T01:24:36.572Z,100982
2017-07-16T01:25:37.643Z,100977
2017-07-16T01:26:38.333Z,100979
2017-07-16T01:27:36.742Z,100987
2017-07-16T01:28:37.693Z,100986
2017-07-16T01:29:37.698Z,100985
2017-07-16T01:30:36.774Z,100988
2017-07-16T01:31:38.460Z,100989
2017-07-16T01:32:37.797Z,100988
2017-07-16T01:33:37.846Z,100986
2017-07-16T01:34:36.952Z,100987
2017-07-16T01:35:37.949Z,100986
2017-07-16T01:36:38.744Z,100989
2017-07-16T01:37:37.112Z,100987
2017-07-16T01:38:38.140Z,100985
2017-07-16T01:39:38.139Z,100987
2017-07-16T01:40:38.899Z,100990
2017-07-16T01:41:37.308Z,100996
2017-07-16T01:42:37.440Z,100995
2017-07-16T01:43:39.179Z,100992
2017-07-16T01:44:38.486Z,100997
2017-07-16T01:45:39.252Z,100998
2017-07-16T01:46:37.585Z,100998
2017-07-16T01:47:39.266Z,101002
2017-07-16T01:48:38.619Z,100999
2017-07-16T01:49:37.761Z,100995
2017-07-16T01:50:39.466Z,101002
2017-07-16T01:51:37.777Z,101005
2017-07-16T01:52:37.895Z,100998
2017-07-16T01:53:38.864Z,101004
2017-07-16T01:54:39.618Z,101000
2017-07-16T01:55:39.748Z,100999
2017-07-16T01:56:38.996Z,100997
2017-07-16T01:57:38.120Z,100996
2017-07-16T01:58:38.149Z,100986
2017-07-16T01:59:38.224Z,100996
2017-07-16T02:00:39.999Z,100992
2017-07-16T02:01:38.432Z,100995
2017-07-16T02:02:39.476Z,100995
2017-07-16T02:03:38.536Z,100995
2017-07-16T02:04:38.614Z,100999
2017-07-16T02:05:40.383Z,100996
2017-07-16T02:06:39.666Z,100996
2017-07-16T02:07:40.428Z,100996
2017-07-16T02:08:40.420Z,100993
2017-07-16T02:09:38.900Z,100988
2017-07-16T02:10:39.824Z,100987
2017-07-16T02:11:38.882Z,100986
2017-07-16T02:12:38.935Z,100990
2017-07-16T02:13:38.948Z,100982
2017-07-16T02:14:40.030Z,100989
2017-07-16T02:15:40.777Z,100988
2017-07-16T02:16:39.168Z,100980
2017-07-16T02:17:39.121Z,100992
2017-07-16T02:18:40.214Z,100992
2017-07-16T02:19:39.320Z,100991
2017-07-16T02:20:39.309Z,100992
2017-07-16T02:21:39.397Z,100993
2017-07-16T02:22:39.509Z,100997
2017-07-16T02:23:40.520Z,100994
2017-07-16T02:24:41.166Z,100996
2017-07-16T02:25:41.231Z,100994
2017-07-16T02:26:40.532Z,100992
2017-07-16T02:27:39.547Z,100996
2017-07-16T02:28:39.634Z,100989
2017-07-16T02:29:41.253Z,100998
2017-07-16T02:30:39.680Z,100997
2017-07-16T02:31:40.721Z,101001
2017-07-16T02:32:40.714Z,101001
2017-07-16T02:33:39.911Z,100989
2017-07-16T02:34:39.942Z,100996
2017-07-16T02:35:40.972Z,100990
2017-07-16T02:36:41.717Z,100998
2017-07-16T02:37:41.772Z,100996
2017-07-16T02:38:40.108Z,100995
2017-07-16T02:39:40.251Z,100995
2017-07-16T02:40:40.187Z,100999
2017-07-16T02:41:41.926Z,100998
2017-07-16T02:42:41.272Z,101000
2017-07-16T02:43:41.229Z,101004
2017-07-16T02:44:42.013Z,100994
2017-07-16T02:45:42.049Z,101004
2017-07-16T02:46:40.443Z,101003
2017-07-16T02:47:41.462Z,101006
2017-07-16T02:48:42.276Z,101001
2017-07-16T02:49:40.576Z,101002
2017-07-16T02:50:42.268Z,101008
2017-07-16T02:51:41.608Z,101009
2017-07-16T02:52:40.712Z,101010
2017-07-16T02:53:40.814Z,101005
2017-07-16T02:54:40.860Z,101006
2017-07-16T02:55:41.945Z,101002
2017-07-16T02:56:42.644Z,101005
2017-07-16T02:57:41.989Z,100992
2017-07-16T02:58:41.033Z,101005
2017-07-16T02:59:42.812Z,101003
2017-07-16T03:00:42.902Z,101001
2017-07-16T03:01:42.917Z,100993
2017-07-16T03:02:42.296Z,100993
2017-07-16T03:03:43.105Z,100998
2017-07-16T03:04:41.516Z,101001
2017-07-16T03:05:41.500Z,101000
2017-07-16T03:06:43.233Z,101003
2017-07-16T03:07:43.228Z,100991
2017-07-16T03:08:43.317Z,100999
2017-07-16T03:09:43.341Z,101001
2017-07-16T03:10:42.633Z,101002
2017-07-16T03:11:41.718Z,101002
2017-07-16T03:12:42.744Z,101003
2017-07-16T03:13:43.514Z,101004
2017-07-16T03:14:42.809Z,100996
2017-07-16T03:15:43.571Z,101005
2017-07-16T03:16:43.581Z,101000
2017-07-16T03:17:41.974Z,100996
2017-07-16T03:18:43.732Z,100992
2017-07-16T03:19:42.061Z,100995
2017-07-16T03:20:42.163Z,100995
2017-07-16T03:21:43.106Z,101000
2017-07-16T03:22:42.157Z,100990
2017-07-16T03:23:43.843Z,100998
2017-07-16T03:24:43.261Z,101000
2017-07-16T03:25:44.000Z,100999
2017-07-16T03:26:43.975Z,101001
2017-07-16T03:27:43.358Z,101003
2017-07-16T03:28:44.163Z,101002
2017-07-16T03:29:42.551Z,101008
2017-07-16T03:30:43.605Z,100997
2017-07-16T03:31:44.375Z,101006
2017-07-16T03:32:42.709Z,101007
2017-07-16T03:33:42.747Z,101010
2017-07-16T03:34:44.541Z,101002
2017-07-16T03:35:42.930Z,101012
2017-07-16T03:36:44.716Z,101010
2017-07-16T03:37:43.027Z,101014
2017-07-16T03:38:44.797Z,101000
2017-07-16T03:39:43.158Z,101008
2017-07-16T03:40:43.189Z,101005
2017-07-16T03:41:43.276Z,101007
2017-07-16T03:42:44.199Z,101005
2017-07-16T03:43:44.256Z,101007
2017-07-16T03:44:43.325Z,101001
2017-07-16T03:45:43.411Z,100999
2017-07-16T03:46:43.428Z,100992
2017-07-16T03:47:45.153Z,100995
2017-07-16T03:48:43.520Z,100999
2017-07-16T03:49:43.528Z,100988
2017-07-16T03:50:43.585Z,100997
2017-07-16T03:51:43.579Z,100994
2017-07-16T03:52:43.715Z,100996
2017-07-16T03:53:44.674Z,100996
2017-07-16T03:54:45.369Z,100993
2017-07-16T03:55:43.719Z,100995
2017-07-16T03:56:44.719Z,100995
2017-07-16T03:57:44.755Z,100986
2017-07-16T03:58:43.797Z,101000
2017-07-16T03:59:44.832Z,100999
2017-07-16T04:00:43.937Z,101002
2017-07-16T04:01:45.002Z,100998
2017-07-16T04:02:45.003Z,101001
2017-07-16T04:03:45.105Z,100999
2017-07-16T04:04:44.152Z,100999
2017-07-16T04:05:44.277Z,100992
2017-07-16T04:06:45.224Z,100997
2017-07-16T04:07:45.301Z,100999
2017-07-16T04:08:45.388Z,100998
2017-07-16T04:09:44.476Z,100999
2017-07-16T04:10:44.561Z,100998
2017-07-16T04:11:44.593Z,100995
2017-07-16T04:12:46.372Z,100999
2017-07-16T04:13:46.425Z,100995
2017-07-16T04:14:45.746Z,100997
2017-07-16T04:15:45.730Z,100995
2017-07-16T04:16:46.524Z,100990
2017-07-16T04:17:44.942Z,100996
2017-07-16T04:18:44.914Z,100995
2017-07-16T04:19:44.966Z,100995
2017-07-16T04:20:44.971Z,100987
2017-07-16T04:21:44.966Z,100993
2017-07-16T04:22:46.666Z,100994
2017-07-16T04:23:45.081Z,100999
2017-07-16T04:24:46.806Z,100997
2017-07-16T04:26:46.089Z,101000
2017-07-16T04:27:45.200Z,101002
2017-07-16T04:28:45.283Z,101002
2017-07-16T04:29:45.332Z,100992
2017-07-16T04:30:45.369Z,101002
2017-07-16T04:31:47.382Z,100999
2017-07-16T04:32:45.569Z,101001
2017-07-16T04:33:46.574Z,100991
2017-07-16T04:34:46.560Z,101002
2017-07-16T04:35:47.325Z,100994
2017-07-16T04:36:45.747Z,101004
2017-07-16T04:37:46.069Z,101003
2017-07-16T04:38:45.819Z,101002
2017-07-16T04:39:47.491Z,101002
2017-07-16T04:40:47.572Z,101007
2017-07-16T04:41:53.607Z,100991
2017-07-16T04:42:45.986Z,100992
2017-07-16T04:43:47.954Z,100996
2017-07-16T04:44:47.110Z,101009
2017-07-16T04:45:46.124Z,101006
2017-07-16T04:46:47.155Z,101007
2017-07-16T04:47:46.223Z,101006
2017-07-16T04:48:47.924Z,101008
2017-07-16T04:49:47.493Z,101009
2017-07-16T04:50:47.250Z,101011
2017-07-16T04:51:46.398Z,101009
2017-07-16T04:52:46.454Z,101010
2017-07-16T04:53:46.449Z,101012
2017-07-16T04:54:46.588Z,101016
2017-07-16T04:55:46.916Z,101018
2017-07-16T04:56:48.329Z,101017
2017-07-16T04:57:46.650Z,101017
2017-07-16T04:58:48.460Z,101016
2017-07-16T04:59:46.822Z,101015
2017-07-16T05:00:48.600Z,101020
2017-07-16T05:01:48.911Z,101008
2017-07-16T05:02:46.979Z,101014
2017-07-16T05:03:47.029Z,101018
2017-07-16T05:04:47.131Z,101017
2017-07-16T05:05:47.057Z,101023
2017-07-16T05:06:48.141Z,101011
2017-07-16T05:07:49.135Z,101018
2017-07-16T05:08:47.234Z,101017
2017-07-16T05:09:47.359Z,101018
2017-07-16T05:10:47.437Z,101012
2017-07-16T05:11:47.512Z,101020
2017-07-16T05:12:47.608Z,101020
2017-07-16T05:13:48.990Z,101015
2017-07-16T05:14:47.692Z,101025
2017-07-16T05:15:47.808Z,101012
2017-07-16T05:16:47.770Z,101016
2017-07-16T05:17:49.516Z,101019
2017-07-16T05:18:47.893Z,101019
2017-07-16T05:19:49.223Z,101022
2017-07-16T05:20:48.093Z,101023
2017-07-16T05:21:49.060Z,101011
2017-07-16T05:22:48.131Z,101024
2017-07-16T05:23:49.072Z,101024
2017-07-16T05:24:49.916Z,101024
2017-07-16T05:25:49.488Z,101023
2017-07-16T05:26:48.285Z,101026
2017-07-16T05:27:49.300Z,101022
2017-07-16T05:28:50.072Z,101027
2017-07-16T05:29:49.371Z,101028
2017-07-16T05:30:50.197Z,101025
2017-07-16T05:31:48.779Z,101026
2017-07-16T05:32:48.518Z,101020
2017-07-16T05:33:49.608Z,101022
2017-07-16T05:34:48.613Z,101026
2017-07-16T05:35:49.652Z,101025
2017-07-16T05:36:49.681Z,101033
2017-07-16T05:37:49.015Z,101018
2017-07-16T05:38:48.747Z,101031
2017-07-16T05:39:50.440Z,101029
2017-07-16T05:40:48.862Z,101032
2017-07-16T05:41:49.817Z,101029
2017-07-16T05:42:49.853Z,101029
2017-07-16T05:43:50.183Z,101032
2017-07-16T05:44:48.934Z,101023
2017-07-16T05:45:48.941Z,101020
2017-07-16T05:46:50.630Z,101030
2017-07-16T05:47:49.924Z,101025
2017-07-16T05:48:50.665Z,101028
2017-07-16T05:49:51.048Z,101029
2017-07-16T05:50:49.192Z,101030
2017-07-16T05:51:49.255Z,101029
2017-07-16T05:52:49.280Z,101032
2017-07-16T05:53:50.924Z,101036
2017-07-16T05:54:51.001Z,101033
2017-07-16T05:55:51.280Z,101037
2017-07-16T05:56:50.987Z,101036
2017-07-16T05:57:49.370Z,101040
2017-07-16T05:58:51.085Z,101034
2017-07-16T05:59:49.438Z,101036
2017-07-16T06:00:51.162Z,101039
2017-07-16T06:01:50.763Z,101027
2017-07-16T06:02:49.563Z,101028
2017-07-16T06:03:49.633Z,101035
2017-07-16T06:04:49.698Z,101038
2017-07-16T06:05:49.793Z,101032
2017-07-16T06:06:49.797Z,101034
2017-07-16T06:07:51.089Z,101035
2017-07-16T06:08:49.862Z,101029
2017-07-16T06:09:49.925Z,101027
2017-07-16T06:10:49.949Z,101027
2017-07-16T06:11:50.020Z,101039
2017-07-16T06:12:51.005Z,101041
2017-07-16T06:13:52.045Z,101036
2017-07-16T06:14:51.793Z,101043
2017-07-16T06:15:51.102Z,101042
2017-07-16T06:16:50.157Z,101047
2017-07-16T06:17:51.843Z,101038
2017-07-16T06:18:51.150Z,101033
2017-07-16T06:19:50.608Z,101035
2017-07-16T06:20:51.271Z,101040
2017-07-16T06:21:51.307Z,101038
2017-07-16T06:22:50.379Z,101039
2017-07-16T06:23:52.071Z,101037
2017-07-16T06:24:50.430Z,101041
2017-07-16T06:25:52.496Z,101039
2017-07-16T06:26:51.554Z,101040
2017-07-16T06:27:50.630Z,101027
2017-07-16T06:28:51.677Z,101029
2017-07-16T06:29:50.674Z,101040
2017-07-16T06:30:52.415Z,101042
2017-07-16T06:31:51.059Z,101041
2017-07-16T06:32:52.526Z,101036
2017-07-16T06:33:50.809Z,101041
2017-07-16T06:34:51.805Z,101041
2017-07-16T06:35:50.882Z,101032
2017-07-16T06:36:50.900Z,101044
2017-07-16T06:37:52.220Z,101042
2017-07-16T06:38:51.071Z,101040
2017-07-16T06:39:51.098Z,101041
2017-07-16T06:40:51.116Z,101046
2017-07-16T06:41:51.099Z,101043
2017-07-16T06:42:51.158Z,101044
2017-07-16T06:43:52.432Z,101033
2017-07-16T06:44:51.245Z,101040
2017-07-16T06:45:52.984Z,101041
2017-07-16T06:46:51.385Z,101043
2017-07-16T06:47:51.429Z,101046
2017-07-16T06:48:52.480Z,101041
2017-07-16T06:49:51.794Z,101035
2017-07-16T06:50:53.243Z,101034
2017-07-16T06:51:51.619Z,101040
2017-07-16T06:52:51.728Z,101045
2017-07-16T06:53:51.696Z,101044
2017-07-16T06:54:51.803Z,101045
2017-07-16T06:55:52.086Z,101052
2017-07-16T06:56:53.562Z,101037
2017-07-16T06:57:52.913Z,101048
2017-07-16T06:58:53.053Z,101049
2017-07-16T06:59:53.746Z,101055
2017-07-16T07:00:52.207Z,101054
2017-07-16T07:01:54.170Z,101057
2017-07-16T07:02:52.289Z,101049
2017-07-16T07:03:52.380Z,101057
2017-07-16T07:04:54.105Z,101054
2017-07-16T07:05:54.137Z,101057
2017-07-16T07:06:52.525Z,101049
2017-07-16T07:07:52.918Z,101046
2017-07-16T07:08:53.650Z,101053
2017-07-16T07:09:52.705Z,101052
2017-07-16T07:10:52.775Z,101054
2017-07-16T07:11:53.765Z,101046
2017-07-16T07:12:52.932Z,101050
2017-07-16T07:13:53.226Z,101052
2017-07-16T07:14:53.005Z,101050
2017-07-16T07:15:53.970Z,101052
2017-07-16T07:16:53.118Z,101059
2017-07-16T07:17:54.871Z,101057
2017-07-16T07:18:53.161Z,101052
2017-07-16T07:19:53.548Z,101059
2017-07-16T07:20:54.977Z,101064
2017-07-16T07:21:53.346Z,101059
2017-07-16T07:22:55.134Z,101065
2017-07-16T07:23:54.453Z,101068
2017-07-16T07:24:54.510Z,101059
2017-07-16T07:25:53.810Z,101064
2017-07-16T07:26:54.568Z,101063
2017-07-16T07:27:55.306Z,101061
2017-07-16T07:28:53.652Z,101065
2017-07-16T07:29:53.746Z,101063
2017-07-16T07:30:54.757Z,101060
2017-07-16T07:31:54.196Z,101065
2017-07-16T07:32:53.898Z,101065
2017-07-16T07:33:54.011Z,101067
2017-07-16T07:34:54.053Z,101067
2017-07-16T07:35:55.782Z,101066
2017-07-16T07:36:55.923Z,101067
2017-07-16T07:37:54.559Z,101053
2017-07-16T07:38:55.966Z,101052
2017-07-16T07:39:55.375Z,101065
2017-07-16T07:40:56.175Z,101065
2017-07-16T07:41:54.499Z,101067
2017-07-16T07:42:56.246Z,101068
2017-07-16T07:43:56.581Z,101064
2017-07-16T07:44:55.600Z,101064
2017-07-16T07:45:54.680Z,101066
2017-07-16T07:46:54.810Z,101060
2017-07-16T07:47:54.876Z,101061
2017-07-16T07:48:55.929Z,101063
2017-07-16T07:49:56.283Z,101063
2017-07-16T07:50:55.132Z,101067
2017-07-16T07:51:56.893Z,101068
2017-07-16T07:52:55.325Z,101069
2017-07-16T07:53:55.366Z,101056
2017-07-16T07:54:55.372Z,101054
2017-07-16T07:55:57.343Z,101055
2017-07-16T07:56:55.421Z,101053
2017-07-16T07:57:57.149Z,101065
2017-07-16T07:58:56.512Z,101062
2017-07-16T07:59:57.245Z,101062
2017-07-16T08:00:55.556Z,101059
2017-07-16T08:01:56.825Z,101066
2017-07-16T08:02:57.349Z,101064
2017-07-16T08:03:55.696Z,101063
2017-07-16T08:04:55.824Z,101061
2017-07-16T08:05:56.772Z,101065
2017-07-16T08:06:57.610Z,101052
2017-07-16T08:07:57.908Z,101050
2017-07-16T08:08:56.950Z,101059
2017-07-16T08:09:56.056Z,101060
2017-07-16T08:10:56.096Z,101060
2017-07-16T08:11:56.156Z,101063
2017-07-16T08:12:56.295Z,101059
2017-07-16T08:13:57.569Z,101057
2017-07-16T08:14:56.286Z,101056
2017-07-16T08:15:56.334Z,101055
2017-07-16T08:16:56.348Z,101056
2017-07-16T08:17:57.391Z,101056
2017-07-16T08:18:56.442Z,101051
2017-07-16T08:19:58.450Z,101055
2017-07-16T08:20:58.214Z,101052
2017-07-16T08:21:56.591Z,101049
2017-07-16T08:22:58.288Z,101051
2017-07-16T08:23:58.385Z,101052
2017-07-16T08:24:57.025Z,101051
2017-07-16T08:25:57.734Z,101050
2017-07-16T08:26:56.891Z,101050
2017-07-16T08:27:57.868Z,101049
2017-07-16T08:28:58.611Z,101051
2017-07-16T08:29:58.595Z,101052
2017-07-16T08:30:57.189Z,101050
2017-07-16T08:31:57.032Z,101048
2017-07-16T08:32:57.101Z,101051
2017-07-16T08:33:57.168Z,101046
2017-07-16T08:34:57.246Z,101045
2017-07-16T08:35:57.317Z,101046
2017-07-16T08:36:59.255Z,101038
2017-07-16T08:37:59.043Z,101040
2017-07-16T08:38:59.180Z,101048
2017-07-16T08:39:58.434Z,101046
2017-07-16T08:40:57.470Z,101050
2017-07-16T08:41:57.550Z,101046
2017-07-16T08:42:57.897Z,101042
2017-07-16T08:43:57.667Z,101052
2017-07-16T08:44:57.750Z,101054
2017-07-16T08:45:57.747Z,101047
2017-07-16T08:46:57.807Z,101056
2017-07-16T08:47:58.864Z,101057
2017-07-16T08:48:59.219Z,101053
2017-07-16T08:49:58.077Z,101046
2017-07-16T08:50:58.121Z,101055
2017-07-16T08:51:59.182Z,101056
2017-07-16T08:52:58.203Z,101057
2017-07-16T08:54:00.517Z,101056
2017-07-16T08:54:58.533Z,101048
2017-07-16T08:55:58.272Z,101060
2017-07-16T08:57:00.057Z,101055
2017-07-16T08:57:58.405Z,101056
2017-07-16T08:59:00.129Z,101048
2017-07-16T09:00:00.151Z,101054
2017-07-16T09:00:58.794Z,101056
2017-07-16T09:01:58.505Z,101055
2017-07-16T09:02:59.563Z,101057
2017-07-16T09:04:00.370Z,101058
2017-07-16T09:05:00.397Z,101050
2017-07-16T09:05:58.725Z,101051
2017-07-16T09:07:00.020Z,101061
2017-07-16T09:07:58.750Z,101059
2017-07-16T09:09:00.538Z,101059
2017-07-16T09:10:00.595Z,101059
2017-07-16T09:11:01.337Z,101052
2017-07-16T09:12:00.738Z,101065
2017-07-16T09:12:59.342Z,101064
2017-07-16T09:13:59.080Z,101064
2017-07-16T09:14:59.197Z,101064
2017-07-16T09:15:59.188Z,101060
2017-07-16T09:16:59.221Z,101058
2017-07-16T09:17:59.225Z,101062
2017-07-16T09:19:00.532Z,101065
2017-07-16T09:20:00.297Z,101067
2017-07-16T09:20:59.320Z,101064
2017-07-16T09:21:59.412Z,101057
2017-07-16T09:22:59.360Z,101063
2017-07-16T09:23:59.482Z,101064
2017-07-16T09:25:01.505Z,101064
2017-07-16T09:26:00.613Z,101065
2017-07-16T09:26:59.704Z,101063
2017-07-16T09:28:00.721Z,101061
2017-07-16T09:29:01.412Z,101068
2017-07-16T09:29:59.845Z,101067
2017-07-16T09:31:01.117Z,101069
2017-07-16T09:32:01.653Z,101060
2017-07-16T09:33:00.981Z,101068
2017-07-16T09:34:00.088Z,101060
2017-07-16T09:35:00.094Z,101066
2017-07-16T09:36:01.069Z,101061
2017-07-16T09:37:00.427Z,101065
2017-07-16T09:38:00.223Z,101057
2017-07-16T09:39:00.324Z,101064
2017-07-16T09:40:02.051Z,101063
2017-07-16T09:41:00.378Z,101065
2017-07-16T09:42:00.392Z,101062
2017-07-16T09:43:00.714Z,101058
2017-07-16T09:44:00.452Z,101064
2017-07-16T09:45:00.558Z,101065
2017-07-16T09:46:00.609Z,101057
2017-07-16T09:47:02.317Z,101064
2017-07-16T09:48:01.625Z,101063
2017-07-16T09:49:02.631Z,101065
2017-07-16T09:50:02.415Z,101061
2017-07-16T09:51:00.812Z,101064
2017-07-16T09:52:00.934Z,101051
2017-07-16T09:53:00.979Z,101062
2017-07-16T09:54:02.708Z,101056
2017-07-16T09:55:02.957Z,101060
2017-07-16T09:56:02.017Z,101057
2017-07-16T09:57:02.050Z,101052
2017-07-16T09:58:02.772Z,101045
2017-07-16T09:59:02.829Z,101058
2017-07-16T10:00:02.086Z,101056
2017-07-16T10:01:01.453Z,101057
2017-07-16T10:02:01.228Z,101057
2017-07-16T10:03:03.009Z,101058
2017-07-16T10:04:03.078Z,101046
2017-07-16T10:05:02.469Z,101059
2017-07-16T10:06:03.269Z,101060
2017-07-16T10:07:03.558Z,101060
2017-07-16T10:08:01.657Z,101055
2017-07-16T10:09:03.417Z,101060
2017-07-16T10:10:01.808Z,101061
2017-07-16T10:11:01.773Z,101060
2017-07-16T10:12:01.841Z,101060
2017-07-16T10:13:03.688Z,101049
2017-07-16T10:14:01.908Z,101060
2017-07-16T10:15:02.936Z,101057
2017-07-16T10:16:02.021Z,101056
2017-07-16T10:17:01.931Z,101056
2017-07-16T10:18:03.094Z,101054
2017-07-16T10:19:04.082Z,101050
2017-07-16T10:20:02.246Z,101049
2017-07-16T10:21:02.306Z,101045
2017-07-16T10:22:02.141Z,101047
2017-07-16T10:23:03.157Z,101054
2017-07-16T10:24:02.294Z,101044
2017-07-16T10:25:02.585Z,101052
2017-07-16T10:26:02.400Z,101056
2017-07-16T10:27:03.436Z,101053
2017-07-16T10:28:02.590Z,101056
2017-07-16T10:29:04.247Z,101053
2017-07-16T10:30:04.321Z,101053
2017-07-16T10:31:03.959Z,101056
2017-07-16T10:32:04.480Z,101053
2017-07-16T10:33:03.683Z,101050
2017-07-16T10:34:04.461Z,101055
2017-07-16T10:35:04.495Z,101055
2017-07-16T10:36:04.608Z,101043
2017-07-16T10:37:04.606Z,101056
2017-07-16T10:38:03.994Z,101053
2017-07-16T10:39:04.057Z,101050
2017-07-16T10:40:04.079Z,101056
2017-07-16T10:41:04.121Z,101055
2017-07-16T10:42:04.851Z,101052
2017-07-16T10:43:03.237Z,101056
2017-07-16T10:44:03.298Z,101054
2017-07-16T10:45:03.405Z,101053
2017-07-16T10:46:05.117Z,101049
2017-07-16T10:47:04.384Z,101041
2017-07-16T10:48:04.492Z,101049
2017-07-16T10:49:03.562Z,101043
2017-07-16T10:50:03.672Z,101040
2017-07-16T10:51:05.388Z,101048
2017-07-16T10:52:03.697Z,101043
2017-07-16T10:53:03.809Z,101044
2017-07-16T10:54:03.889Z,101045
2017-07-16T10:55:04.877Z,101034
2017-07-16T10:56:04.866Z,101044
2017-07-16T10:57:03.951Z,101043
2017-07-16T10:58:03.966Z,101039
2017-07-16T10:59:04.095Z,101041
2017-07-16T11:00:04.141Z,101039
2017-07-16T11:01:05.239Z,101041
2017-07-16T11:02:04.269Z,101045
2017-07-16T11:03:05.289Z,101040
2017-07-16T11:04:06.057Z,101033
2017-07-16T11:05:06.061Z,101037
2017-07-16T11:06:06.037Z,101038
2017-07-16T11:07:04.351Z,101036
2017-07-16T11:08:06.056Z,101041
2017-07-16T11:09:05.411Z,101045
2017-07-16T11:10:04.517Z,101040
2017-07-16T11:11:05.576Z,101041
2017-07-16T11:12:05.625Z,101041
2017-07-16T11:13:04.703Z,101040
2017-07-16T11:14:06.480Z,101042
2017-07-16T11:15:06.498Z,101041
2017-07-16T11:16:06.602Z,101033
2017-07-16T11:17:06.635Z,101043
2017-07-16T11:18:05.965Z,101037
2017-07-16T11:19:06.683Z,101042
2017-07-16T11:20:05.075Z,101032
2017-07-16T11:21:05.130Z,101037
2017-07-16T11:22:05.208Z,101040
2017-07-16T11:23:05.202Z,101039
2017-07-16T11:24:05.273Z,101040
2017-07-16T11:25:05.242Z,101039
2017-07-16T11:26:07.029Z,101038
2017-07-16T11:27:06.376Z,101029
2017-07-16T11:28:05.440Z,101036
2017-07-16T11:29:05.521Z,101034
2017-07-16T11:30:06.460Z,101033
2017-07-16T11:31:05.617Z,101031
2017-07-16T11:32:05.625Z,101034
2017-07-16T11:33:05.591Z,101032
2017-07-16T11:34:07.395Z,101034
2017-07-16T11:35:07.042Z,101033
2017-07-16T11:36:07.582Z,101031
2017-07-16T11:37:06.051Z,101026
2017-07-16T11:38:07.725Z,101028
2017-07-16T11:39:06.072Z,101028
2017-07-16T11:40:06.055Z,101028
2017-07-16T11:41:08.101Z,101021
2017-07-16T11:42:07.870Z,101030
2017-07-16T11:43:06.248Z,101028
2017-07-16T11:44:06.353Z,101028
2017-07-16T11:45:08.031Z,101026
2017-07-16T11:46:06.331Z,101029
2017-07-16T11:47:06.640Z,101031
2017-07-16T11:48:08.146Z,101029
2017-07-16T11:49:07.398Z,101030
2017-07-16T11:50:08.232Z,101031
2017-07-16T11:51:07.547Z,101031
2017-07-16T11:52:07.611Z,101026
2017-07-16T11:53:06.996Z,101024
2017-07-16T11:54:07.625Z,101032
2017-07-16T11:55:08.967Z,101028
2017-07-16T11:56:08.305Z,101029
2017-07-16T11:57:08.397Z,101022
2017-07-16T11:58:07.612Z,101028
2017-07-16T11:59:08.931Z,101025
2017-07-16T12:00:08.701Z,101024
2017-07-16T12:01:08.093Z,101021
2017-07-16T12:02:08.904Z,101031
2017-07-16T12:03:07.817Z,101026
2017-07-16T12:04:08.211Z,101022
2017-07-16T12:05:08.207Z,101029
2017-07-16T12:06:07.255Z,101032
2017-07-16T12:07:09.025Z,101024
2017-07-16T12:08:07.305Z,101015
2017-07-16T12:09:07.456Z,101027
2017-07-16T12:10:09.165Z,101021
2017-07-16T12:11:07.912Z,101020
2017-07-16T12:12:08.545Z,101020
2017-07-16T12:13:09.400Z,101012
2017-07-16T12:14:09.314Z,101023
2017-07-16T12:15:07.653Z,101027
2017-07-16T12:16:07.739Z,101022
2017-07-16T12:17:08.927Z,101023
2017-07-16T12:18:08.701Z,101023
2017-07-16T12:19:08.738Z,101020
2017-07-16T12:20:07.855Z,101017
2017-07-16T12:21:09.383Z,101019
2017-07-16T12:22:09.538Z,101019
2017-07-16T12:23:10.647Z,101008
2017-07-16T12:24:07.925Z,101015
2017-07-16T12:25:09.013Z,101016
2017-07-16T12:26:09.537Z,101013
2017-07-16T12:27:09.094Z,101011
2017-07-16T12:28:09.124Z,101008
2017-07-16T12:29:10.202Z,101002
2017-07-16T12:30:09.862Z,101004